createdAt,value
2022-11-22T00:02:25.873Z,99627.88
2022-11-22T00:04:52.308Z,99627.81
2022-11-22T00:07:18.757Z,99629.56
2022-11-22T00:09:46.310Z,99616.44
2022-11-22T00:12:12.706Z,99623.44
2022-11-22T00:14:39.124Z,99624.34
2022-11-22T00:17:05.505Z,99622.59
2022-11-22T00:19:32.027Z,99626.94
2022-11-22T00:21:58.517Z,99637.38
2022-11-22T00:24:24.911Z,99639.09
2022-11-22T00:26:51.335Z,99644.34
2022-11-22T00:29:17.759Z,99637.41
2022-11-22T00:31:44.180Z,99631.28
2022-11-22T00:34:10.573Z,99630.41
2022-11-22T00:36:37.000Z,99633.88
2022-11-22T00:39:03.414Z,99633.00
2022-11-22T00:41:29.836Z,99625.13
2022-11-22T00:43:56.223Z,99616.41
2022-11-22T00:46:22.654Z,99619.00
2022-11-22T00:48:49.142Z,99611.16
2022-11-22T00:51:15.536Z,99623.44
2022-11-22T00:53:42.077Z,99617.28
2022-11-22T00:56:08.469Z,99620.75
2022-11-22T00:58:34.886Z,99623.34
2022-11-22T01:01:01.329Z,99612.81
2022-11-22T01:03:27.802Z,99605.84
2022-11-22T01:05:54.195Z,99610.19
2022-11-22T01:08:20.600Z,99610.19
2022-11-22T01:10:47.010Z,99618.06
2022-11-22T01:13:13.413Z,99605.81
2022-11-22T01:15:39.873Z,99596.22
2022-11-22T01:18:06.276Z,99602.31
2022-11-22T01:20:32.746Z,99584.84
2022-11-22T01:22:59.156Z,99578.72
2022-11-22T01:25:25.572Z,99581.38
2022-11-22T01:27:51.988Z,99583.13
2022-11-22T01:30:18.931Z,99572.72
2022-11-22T01:32:45.324Z,99580.56
2022-11-22T01:35:11.733Z,99580.56
2022-11-22T01:37:38.129Z,99583.19
2022-11-22T01:40:04.942Z,99597.16
2022-11-22T01:42:49.886Z,99598.03
2022-11-22T01:45:31.629Z,99605.00
2022-11-22T01:48:03.509Z,99607.59
2022-11-22T01:50:30.932Z,99604.09
2022-11-22T01:52:57.359Z,99591.84
2022-11-22T01:55:23.763Z,99585.66
2022-11-22T01:57:50.209Z,99583.91
2022-11-22T02:00:17.403Z,99584.84
2022-11-22T02:02:45.583Z,99586.59
2022-11-22T02:05:13.765Z,99578.72
2022-11-22T02:07:43.242Z,99571.75
2022-11-22T02:10:09.717Z,99573.50
2022-11-22T02:12:36.125Z,99584.84
2022-11-22T02:15:03.138Z,99571.75
2022-11-22T02:17:29.659Z,99569.16
2022-11-22T02:19:56.074Z,99557.78
2022-11-22T02:22:33.143Z,99561.25
2022-11-22T02:25:13.007Z,99549.91
2022-11-22T02:27:39.706Z,99555.16
2022-11-22T02:30:06.582Z,99561.25
2022-11-22T02:32:32.963Z,99563.00
2022-11-22T02:34:59.378Z,99549.91
2022-11-22T02:37:27.272Z,99538.56
2022-11-22T02:39:57.241Z,99540.31
2022-11-22T02:42:25.281Z,99542.91
2022-11-22T02:44:51.722Z,99541.09
2022-11-22T02:47:18.132Z,99528.94
2022-11-22T02:49:44.549Z,99522.75
2022-11-22T02:52:10.953Z,99521.88
2022-11-22T02:54:37.347Z,99523.63
2022-11-22T02:57:03.821Z,99521.94
2022-11-22T02:59:30.477Z,99512.28
2022-11-22T03:02:02.827Z,99511.44
2022-11-22T03:04:29.779Z,99509.69
2022-11-22T03:06:57.653Z,99497.41
2022-11-22T03:09:24.754Z,99488.69
2022-11-22T03:11:51.237Z,99487.78
2022-11-22T03:14:17.657Z,99477.31
2022-11-22T03:16:44.397Z,99487.88
2022-11-22T03:19:10.839Z,99490.47
2022-11-22T03:21:37.894Z,99499.25
2022-11-22T03:24:04.734Z,99509.72
2022-11-22T03:26:31.225Z,99503.56
2022-11-22T03:28:57.592Z,99505.34
2022-11-22T03:31:23.999Z,99507.06
2022-11-22T03:33:50.392Z,99504.41
2022-11-22T03:36:16.803Z,99507.88
2022-11-22T03:38:43.199Z,99503.50
2022-11-22T03:41:09.609Z,99489.53
2022-11-22T03:43:36.074Z,99500.00
2022-11-22T03:46:02.491Z,99486.94
2022-11-22T03:48:28.885Z,99492.13
2022-11-22T03:51:03.208Z,99504.38
2022-11-22T03:53:29.625Z,99507.03
2022-11-22T03:55:56.068Z,99506.13
2022-11-22T03:58:22.464Z,99498.25
2022-11-22T04:00:48.874Z,99499.09
2022-11-22T04:03:15.322Z,99492.94
2022-11-22T04:05:41.713Z,99492.94
2022-11-22T04:08:08.140Z,99506.00
2022-11-22T04:10:34.545Z,99499.03
2022-11-22T04:13:01.052Z,99501.72
2022-11-22T04:15:27.450Z,99500.78
2022-11-22T04:17:53.897Z,99506.91
2022-11-22T04:20:21.938Z,99516.53
2022-11-22T04:22:58.491Z,99504.28
2022-11-22T04:25:25.872Z,99488.63
2022-11-22T04:27:52.258Z,99506.88
2022-11-22T04:30:20.704Z,99492.00
2022-11-22T04:32:47.528Z,99483.38
2022-11-22T04:35:14.914Z,99486.00
2022-11-22T04:37:42.127Z,99490.31
2022-11-22T04:40:09.432Z,99493.88
2022-11-22T04:42:35.822Z,99492.03
2022-11-22T04:45:02.236Z,99488.53
2022-11-22T04:47:28.626Z,99479.81
2022-11-22T04:49:55.030Z,99483.31
2022-11-22T04:52:21.449Z,99481.53
2022-11-22T04:54:47.855Z,99479.78
2022-11-22T04:57:14.296Z,99485.88
2022-11-22T04:59:40.673Z,99491.91
2022-11-22T05:02:07.086Z,99477.03
2022-11-22T05:04:33.660Z,99462.09
2022-11-22T05:07:00.125Z,99452.44
2022-11-22T05:09:26.576Z,99472.53
2022-11-22T05:11:53.021Z,99480.31
2022-11-22T05:14:19.439Z,99496.13
2022-11-22T05:16:48.409Z,99489.16
2022-11-22T05:19:14.831Z,99471.69
2022-11-22T05:21:41.234Z,99476.94
2022-11-22T05:24:07.895Z,99465.59
2022-11-22T05:26:35.848Z,99479.44
2022-11-22T05:29:06.992Z,99480.31
2022-11-22T05:31:34.298Z,99485.63
2022-11-22T05:34:00.749Z,99487.38
2022-11-22T05:36:27.172Z,99477.72
2022-11-22T05:38:55.066Z,99474.19
2022-11-22T05:41:21.507Z,99480.31
2022-11-22T05:43:47.912Z,99475.09
2022-11-22T05:46:23.956Z,99470.72
2022-11-22T05:48:51.382Z,99461.97
2022-11-22T05:51:18.968Z,99450.59
2022-11-22T05:53:45.816Z,99463.69
2022-11-22T05:56:17.089Z,99464.56
2022-11-22T05:58:43.585Z,99461.94
2022-11-22T06:01:12.922Z,99461.94
2022-11-22T06:03:39.309Z,99473.28
2022-11-22T06:06:06.113Z,99469.72
2022-11-22T06:08:33.438Z,99470.56
2022-11-22T06:11:16.290Z,99466.97
2022-11-22T06:13:43.115Z,99477.44
2022-11-22T06:16:09.588Z,99475.66
2022-11-22T06:18:36.093Z,99480.94
2022-11-22T06:21:07.122Z,99483.66
2022-11-22T06:23:34.165Z,99478.38
2022-11-22T06:26:02.987Z,99497.63
2022-11-22T06:28:29.640Z,99490.63
2022-11-22T06:31:09.796Z,99492.38
2022-11-22T06:33:36.235Z,99505.44
2022-11-22T06:36:06.915Z,99493.16
2022-11-22T06:38:33.490Z,99498.38
2022-11-22T06:41:03.606Z,99503.66
2022-11-22T06:43:30.295Z,99501.94
2022-11-22T06:46:00.686Z,99508.00
2022-11-22T06:48:28.936Z,99496.63
2022-11-22T06:50:59.493Z,99499.25
2022-11-22T06:53:46.088Z,99494.03
2022-11-22T06:56:20.166Z,99494.03
2022-11-22T06:58:47.039Z,99492.28
2022-11-22T07:01:18.073Z,99490.50
2022-11-22T07:03:44.697Z,99502.75
2022-11-22T07:06:11.901Z,99493.06
2022-11-22T07:08:38.804Z,99494.81
2022-11-22T07:11:06.680Z,99492.25
2022-11-22T07:13:33.413Z,99487.78
2022-11-22T07:16:00.911Z,99478.13
2022-11-22T07:18:27.596Z,99486.00
2022-11-22T07:20:59.562Z,99481.59
2022-11-22T07:23:26.058Z,99484.25
2022-11-22T07:25:52.476Z,99488.63
2022-11-22T07:28:18.935Z,99477.25
2022-11-22T07:30:45.386Z,99477.25
2022-11-22T07:33:11.777Z,99475.47
2022-11-22T07:35:38.201Z,99478.03
2022-11-22T07:38:04.673Z,99474.63
2022-11-22T07:40:31.292Z,99478.91
2022-11-22T07:42:58.766Z,99497.28
2022-11-22T07:45:25.394Z,99488.59
2022-11-22T07:47:51.988Z,99478.97
2022-11-22T07:50:18.725Z,99483.25
2022-11-22T07:52:45.132Z,99485.91
2022-11-22T07:55:14.316Z,99478.00
2022-11-22T07:57:40.924Z,99483.25
2022-11-22T08:00:08.261Z,99483.25
2022-11-22T08:02:34.661Z,99490.22
2022-11-22T08:05:01.286Z,99492.03
2022-11-22T08:07:28.997Z,99493.72
2022-11-22T08:09:55.498Z,99497.25
2022-11-22T08:12:22.004Z,99509.50
2022-11-22T08:14:49.085Z,99510.34
2022-11-22T08:17:15.490Z,99512.09
2022-11-22T08:19:42.131Z,99516.47
2022-11-22T08:22:09.680Z,99513.88
2022-11-22T08:24:36.099Z,99516.50
2022-11-22T08:27:02.629Z,99527.88
2022-11-22T08:29:29.268Z,99526.13
2022-11-22T08:31:55.906Z,99525.19
2022-11-22T08:34:22.373Z,99521.63
2022-11-22T08:36:48.763Z,99519.03
2022-11-22T08:39:15.264Z,99522.59
2022-11-22T08:41:41.670Z,99520.88
2022-11-22T08:44:08.130Z,99530.47
2022-11-22T08:46:34.526Z,99527.84
2022-11-22T08:49:00.945Z,99520.88
2022-11-22T08:51:27.351Z,99539.25
2022-11-22T08:53:53.770Z,99540.09
2022-11-22T08:56:20.173Z,99525.22
2022-11-22T08:58:46.636Z,99526.13
2022-11-22T09:01:15.615Z,99533.06
2022-11-22T09:03:42.416Z,99542.66
2022-11-22T09:09:22.087Z,99550.47
2022-11-22T09:11:43.893Z,99553.88
2022-11-22T09:14:10.310Z,99554.81
2022-11-22T09:16:36.697Z,99561.88
2022-11-22T09:19:03.094Z,99568.84
2022-11-22T09:21:29.636Z,99573.19
2022-11-22T09:23:56.079Z,99563.56
2022-11-22T09:26:23.133Z,99575.81
2022-11-22T09:28:49.511Z,99562.75
2022-11-22T09:31:19.721Z,99566.22
2022-11-22T09:33:46.378Z,99568.81
2022-11-22T09:36:15.344Z,99575.75
2022-11-22T09:38:41.800Z,99576.69
2022-11-22T09:41:17.000Z,99574.06
2022-11-22T09:43:49.676Z,99571.44
2022-11-22T09:46:45.037Z,99564.31
2022-11-22T09:49:26.050Z,99563.44
2022-11-22T09:51:59.558Z,99563.47
2022-11-22T09:54:28.464Z,99573.91
2022-11-22T09:56:56.065Z,99578.25
2022-11-22T09:59:28.778Z,99576.47
2022-11-22T10:02:18.226Z,99579.94
2022-11-22T10:04:49.040Z,99561.47
2022-11-22T10:07:19.336Z,99575.44
2022-11-22T10:09:57.395Z,99570.94
2022-11-22T10:12:33.807Z,99576.16
2022-11-22T10:15:08.448Z,99570.84
2022-11-22T10:17:57.493Z,99579.59
2022-11-22T10:20:26.917Z,99588.28
2022-11-22T10:22:53.409Z,99583.03
2022-11-22T10:25:21.624Z,99582.16
2022-11-22T10:27:56.239Z,99585.66
2022-11-22T10:30:26.796Z,99592.66
2022-11-22T10:33:15.965Z,99582.16
2022-11-22T10:36:03.574Z,99582.97
2022-11-22T10:38:49.257Z,99582.00
2022-11-22T10:41:26.137Z,99587.22
2022-11-22T10:44:28.078Z,99582.84
2022-11-22T10:46:59.724Z,99593.31
2022-11-22T10:49:47.997Z,99595.03
2022-11-22T10:52:19.860Z,99580.06
2022-11-22T10:54:55.524Z,99588.78
2022-11-22T10:57:27.819Z,99582.59
2022-11-22T11:00:13.763Z,99585.16
2022-11-22T11:03:04.670Z,99584.22
2022-11-22T11:06:15.693Z,99585.91
2022-11-22T11:11:30.724Z,99591.13
2022-11-22T11:13:59.804Z,99592.00
2022-11-22T11:16:28.710Z,99596.38
2022-11-22T11:19:21.513Z,99584.13
2022-11-22T11:22:00.075Z,99584.13
2022-11-22T11:24:28.834Z,99586.69
2022-11-22T11:26:55.674Z,99584.91
2022-11-22T11:29:37.455Z,99587.41
2022-11-22T11:32:12.550Z,99590.94
2022-11-22T11:34:40.987Z,99587.44
2022-11-22T11:37:24.236Z,99578.63
2022-11-22T11:39:50.682Z,99585.66
2022-11-22T11:42:27.107Z,99583.88
2022-11-22T11:44:53.716Z,99568.88
2022-11-22T11:47:31.498Z,99566.19
2022-11-22T11:49:57.914Z,99568.81
2022-11-22T11:52:24.313Z,99566.09
2022-11-22T11:54:53.660Z,99564.28
2022-11-22T11:57:24.801Z,99563.34
2022-11-22T11:59:51.225Z,99560.72
2022-11-22T12:02:17.755Z,99567.75
2022-11-22T12:05:00.476Z,99566.84
2022-11-22T12:07:36.472Z,99554.53
2022-11-22T12:10:24.028Z,99565.03
2022-11-22T12:12:52.390Z,99560.59
2022-11-22T12:15:30.908Z,99564.06
2022-11-22T12:18:00.140Z,99567.56
2022-11-22T12:20:41.242Z,99565.81
2022-11-22T12:23:26.354Z,99564.94
2022-11-22T12:25:53.938Z,99562.22
2022-11-22T12:28:21.461Z,99558.63
2022-11-22T12:30:58.705Z,99557.75
2022-11-22T12:33:37.166Z,99556.84
2022-11-22T12:36:04.682Z,99562.97
2022-11-22T12:38:37.166Z,99565.59
2022-11-22T12:41:04.430Z,99547.22
2022-11-22T12:43:36.479Z,99553.31
2022-11-22T12:46:09.885Z,99548.03
2022-11-22T12:48:50.491Z,99552.31
2022-11-22T12:51:35.814Z,99554.09
2022-11-22T12:54:03.936Z,99549.75
2022-11-22T12:56:51.838Z,99554.94
2022-11-22T12:59:27.984Z,99549.75
2022-11-22T13:01:57.287Z,99547.97
2022-11-22T13:04:35.119Z,99555.81
2022-11-22T13:07:11.631Z,99557.63
2022-11-22T13:09:41.073Z,99562.03
2022-11-22T13:12:12.216Z,99565.44
2022-11-22T13:14:44.886Z,99575.94
2022-11-22T13:17:12.432Z,99568.94
2022-11-22T13:19:48.822Z,99569.78
2022-11-22T13:22:47.933Z,99582.94
2022-11-22T13:25:33.169Z,99595.16
2022-11-22T13:28:00.241Z,99602.09
2022-11-22T13:30:27.841Z,99604.72
2022-11-22T13:32:58.142Z,99603.13
2022-11-22T13:35:33.481Z,99605.75
2022-11-22T13:38:05.384Z,99610.13
2022-11-22T13:40:38.202Z,99603.16
2022-11-22T13:43:31.086Z,99607.53
2022-11-22T13:45:58.787Z,99615.47
2022-11-22T13:48:40.412Z,99618.06
2022-11-22T13:51:11.215Z,99614.59
2022-11-22T13:53:38.868Z,99610.16
2022-11-22T13:56:20.272Z,99619.75
2022-11-22T13:59:08.290Z,99612.69
2022-11-22T14:01:34.716Z,99607.41
2022-11-22T14:04:16.593Z,99603.81
2022-11-22T14:06:49.344Z,99605.53
2022-11-22T14:09:27.915Z,99591.50
2022-11-22T14:12:18.833Z,99582.66
2022-11-22T14:14:47.857Z,99587.94
2022-11-22T14:17:38.555Z,99586.19
2022-11-22T14:20:19.555Z,99597.56
2022-11-22T14:23:01.189Z,99595.75
2022-11-22T14:25:54.894Z,99589.69
2022-11-22T14:28:39.524Z,99587.97
2022-11-22T14:31:14.356Z,99593.28
2022-11-22T14:34:16.243Z,99602.94
2022-11-22T14:36:42.750Z,99607.50
2022-11-22T14:39:44.556Z,99612.72
2022-11-22T14:42:38.588Z,99617.16
2022-11-22T14:45:11.162Z,99602.28
2022-11-22T14:47:52.760Z,99595.34
2022-11-22T14:50:34.268Z,99607.59
2022-11-22T14:53:11.023Z,99614.66
2022-11-22T14:55:37.931Z,99605.06
2022-11-22T14:58:06.265Z,99605.13
2022-11-22T15:00:36.235Z,99616.50
2022-11-22T15:03:08.741Z,99624.41
2022-11-22T15:09:14.331Z,99620.75
2022-11-22T15:09:14.768Z,99619.03
2022-11-22T15:12:12.269Z,99624.34
2022-11-22T15:14:56.661Z,99611.19
2022-11-22T15:57:26.233Z,99653.63
2022-11-22T15:59:53.575Z,99652.75
2022-11-22T16:02:21.244Z,99643.91
2022-11-22T16:06:07.160Z,99646.50
2022-11-22T16:07:48.593Z,99643.84
2022-11-22T16:10:31.155Z,99650.03
2022-11-22T16:12:57.558Z,99641.28
2022-11-22T16:15:30.616Z,99643.13
2022-11-22T16:18:06.942Z,99646.72
2022-11-22T16:20:33.827Z,99646.75
2022-11-22T16:23:09.509Z,99654.59
2022-11-22T16:25:39.533Z,99655.50
2022-11-22T16:28:26.035Z,99653.75
2022-11-22T16:30:56.900Z,99656.44
2022-11-22T16:33:23.660Z,99655.47
2022-11-22T16:35:57.211Z,99653.69
2022-11-22T16:38:23.814Z,99661.59
2022-11-22T16:40:50.243Z,99665.09
2022-11-22T16:43:20.941Z,99660.75
2022-11-22T16:45:47.967Z,99659.97
2022-11-22T16:48:32.922Z,99666.09
2022-11-22T16:51:07.236Z,99672.16
2022-11-22T16:53:44.145Z,99668.66
2022-11-22T16:56:29.495Z,99675.75
2022-11-22T16:58:59.171Z,99663.50
2022-11-22T17:01:27.055Z,99666.13
2022-11-22T17:03:56.039Z,99671.41
2022-11-22T17:06:26.548Z,99668.78
2022-11-22T17:08:55.166Z,99659.22
2022-11-22T17:11:24.132Z,99668.81
2022-11-22T17:13:50.873Z,99669.75
2022-11-22T17:16:17.413Z,99677.59
2022-11-22T17:18:44.809Z,99676.78
2022-11-22T17:21:34.270Z,99678.47
2022-11-22T17:24:07.238Z,99682.03
2022-11-22T17:26:33.811Z,99689.06
2022-11-22T17:29:00.220Z,99683.84
2022-11-22T17:31:29.147Z,99680.38
2022-11-22T17:33:57.045Z,99685.59
2022-11-22T17:36:36.133Z,99686.63
2022-11-22T17:39:04.486Z,99704.88
2022-11-22T17:41:39.513Z,99711.91
2022-11-22T17:44:06.289Z,99705.78
2022-11-22T17:46:34.826Z,99702.28
2022-11-22T17:49:01.586Z,99705.78
2022-11-22T17:51:28.880Z,99713.69
2022-11-22T17:53:55.624Z,99710.16
2022-11-22T17:56:22.243Z,99712.94
2022-11-22T17:58:48.676Z,99719.03
2022-11-22T18:01:16.716Z,99719.00
2022-11-22T18:03:43.281Z,99720.78
2022-11-22T18:06:11.163Z,99722.53
2022-11-22T18:08:39.559Z,99715.53
2022-11-22T18:11:09.123Z,99729.59
2022-11-22T18:13:37.111Z,99715.56
2022-11-22T18:16:06.075Z,99722.63
2022-11-22T18:18:55.730Z,99716.56
2022-11-22T18:21:19.205Z,99702.44
2022-11-22T18:23:45.637Z,99698.03
2022-11-22T18:29:35.140Z,99697.28
2022-11-22T18:31:52.340Z,99706.97
2022-11-22T18:34:19.609Z,99718.31
2022-11-22T18:39:37.978Z,99720.97
2022-11-22T18:42:06.380Z,99723.56
2022-11-22T18:44:32.969Z,99714.78
2022-11-22T18:46:59.447Z,99711.34
2022-11-22T18:49:25.899Z,99719.25
2022-11-22T18:51:52.330Z,99717.47
2022-11-22T18:54:18.806Z,99721.84
2022-11-22T18:56:45.210Z,99721.00
2022-11-22T18:59:11.804Z,99700.03
2022-11-22T19:01:38.408Z,99724.50
2022-11-22T19:04:05.108Z,99719.31
2022-11-22T19:06:31.598Z,99713.13
2022-11-22T19:08:58.070Z,99713.09
2022-11-22T19:11:25.219Z,99709.59
2022-11-22T19:13:51.642Z,99714.88
2022-11-22T19:16:19.793Z,99708.72
2022-11-22T19:18:46.182Z,99704.38
2022-11-22T19:21:16.766Z,99712.25
2022-11-22T19:23:43.173Z,99713.97
2022-11-22T19:26:14.146Z,99716.63
2022-11-22T19:28:41.290Z,99723.63
2022-11-22T19:31:11.360Z,99715.72
2022-11-22T19:33:37.740Z,99715.75
2022-11-22T19:36:05.946Z,99712.34
2022-11-22T19:38:32.479Z,99703.56
2022-11-22T19:40:58.924Z,99706.16
2022-11-22T19:43:25.392Z,99706.22
2022-11-22T19:45:51.917Z,99702.66
2022-11-22T19:48:18.649Z,99696.53
2022-11-22T19:50:45.100Z,99698.28
2022-11-22T19:53:11.677Z,99686.94
2022-11-22T19:55:45.433Z,99689.56
2022-11-22T19:58:12.180Z,99698.31
2022-11-22T20:00:38.702Z,99703.56
2022-11-22T20:03:13.784Z,99696.53
2022-11-22T20:05:40.877Z,99701.81
2022-11-22T20:08:10.366Z,99707.06
2022-11-22T20:10:41.933Z,99703.53
2022-11-22T20:13:10.727Z,99706.94
2022-11-22T20:15:40.904Z,99698.22
2022-11-22T20:18:07.879Z,99709.59
2022-11-22T20:20:35.975Z,99693.91
2022-11-22T20:23:04.565Z,99698.28
2022-11-22T20:25:32.905Z,99691.38
2022-11-22T20:27:59.984Z,99705.25
2022-11-22T20:30:28.589Z,99687.81
2022-11-22T20:33:02.335Z,99700.06
2022-11-22T20:35:29.754Z,99698.34
2022-11-22T20:37:56.677Z,99700.13
2022-11-22T20:40:26.063Z,99694.88
2022-11-22T20:43:03.985Z,99700.09
2022-11-22T20:45:31.856Z,99700.94
2022-11-22T20:47:58.626Z,99703.56
2022-11-22T20:50:26.210Z,99702.69
2022-11-22T20:52:56.345Z,99706.22
2022-11-22T20:55:23.082Z,99706.22
2022-11-22T20:57:50.085Z,99700.13
2022-11-22T21:00:18.674Z,99707.22
2022-11-22T21:02:48.571Z,99714.22
2022-11-22T21:05:20.461Z,99714.25
2022-11-22T21:07:49.580Z,99709.00
2022-11-22T21:10:28.265Z,99710.78
2022-11-22T21:13:07.746Z,99711.75
2022-11-22T21:15:36.119Z,99716.16
2022-11-22T21:20:52.471Z,99724.94
2022-11-22T21:23:18.973Z,99725.88
2022-11-22T21:25:46.035Z,99725.03
2022-11-22T21:28:12.502Z,99733.75
2022-11-22T21:30:38.905Z,99720.63
2022-11-22T21:33:05.419Z,99724.13
2022-11-22T21:35:31.879Z,99716.22
2022-11-22T21:37:58.341Z,99718.00
2022-11-22T21:40:26.959Z,99725.81
2022-11-22T21:42:53.438Z,99729.31
2022-11-22T21:45:19.838Z,99739.78
2022-11-22T21:47:46.335Z,99735.34
2022-11-22T21:50:12.892Z,99735.31
2022-11-22T21:52:39.376Z,99729.19
2022-11-22T21:55:06.405Z,99736.16
2022-11-22T21:57:32.829Z,99727.41
2022-11-22T21:59:59.214Z,99717.75
2022-11-22T22:02:25.628Z,99721.16
2022-11-22T22:04:52.040Z,99717.72
2022-11-22T22:09:58.946Z,99723.78
2022-11-22T22:12:25.420Z,99722.09
2022-11-22T22:14:52.520Z,99729.91
2022-11-22T22:17:18.997Z,99723.75
2022-11-22T22:19:45.719Z,99726.34
2022-11-22T22:22:12.216Z,99728.97
2022-11-22T22:24:38.837Z,99725.38
2022-11-22T22:27:05.357Z,99710.50
2022-11-22T22:29:32.290Z,99717.34
2022-11-22T22:31:58.955Z,99722.59
2022-11-22T22:34:25.542Z,99717.34
2022-11-22T22:36:52.070Z,99714.78
2022-11-22T22:39:18.491Z,99724.34
2022-11-22T22:41:44.938Z,99722.56
2022-11-22T22:44:11.408Z,99731.31
2022-11-22T22:46:37.809Z,99724.31
2022-11-22T22:49:04.208Z,99716.34
2022-11-22T22:51:33.245Z,99710.28
2022-11-22T22:54:00.100Z,99719.84
2022-11-22T22:56:29.409Z,99721.53
2022-11-22T22:58:56.427Z,99721.50
2022-11-22T23:01:24.232Z,99716.16
2022-11-22T23:04:06.058Z,99717.88
2022-11-22T23:06:33.460Z,99720.47
2022-11-22T23:08:59.964Z,99724.00
2022-11-22T23:11:30.634Z,99716.97
2022-11-22T23:13:57.030Z,99717.78
2022-11-22T23:16:23.447Z,99713.38
2022-11-22T23:18:49.849Z,99719.50
2022-11-22T23:21:16.287Z,99716.09
2022-11-22T23:23:42.707Z,99723.00
2022-11-22T23:26:10.518Z,99708.09
2022-11-22T23:28:37.060Z,99710.69
2022-11-22T23:31:07.443Z,99718.56
2022-11-22T23:33:34.135Z,99708.94
2022-11-22T23:36:04.629Z,99702.91
2022-11-22T23:38:31.240Z,99720.34
2022-11-22T23:40:57.654Z,99711.53
2022-11-22T23:43:24.042Z,99710.66
2022-11-22T23:45:50.423Z,99708.03
2022-11-22T23:48:16.825Z,99726.44
2022-11-22T23:50:43.304Z,99714.19
2022-11-22T23:53:10.029Z,99724.63
2022-11-22T23:55:36.678Z,99708.94
2022-11-22T23:58:03.121Z,99722.84
